sensor_id;sensor_type;location;lat;lon;timestamp;P1;durP1;ratioP1;P2;durP2;ratioP2
6424;SDS011;12193;42.642;23.384;2022-09-16T00:01:44;8.27;;;2.93;;
6424;SDS011;12193;42.642;23.384;2022-09-16T00:04:18;7.67;;;2.83;;
6424;SDS011;12193;42.642;23.384;2022-09-16T03:08:46;13.57;;;3.30;;
6424;SDS011;12193;42.642;23.384;2022-09-16T03:11:22;5.13;;;2.57;;
6424;SDS011;12193;42.642;23.384;2022-09-16T03:14:02;9.93;;;2.77;;
6424;SDS011;12193;42.642;23.384;2022-09-16T03:16:44;6.77;;;2.93;;
6424;SDS011;12193;42.642;23.384;2022-09-16T03:19:20;7.73;;;2.90;;
6424;SDS011;12193;42.642;23.384;2022-09-16T03:22:05;7.63;;;3.23;;
6424;SDS011;12193;42.642;23.384;2022-09-16T03:24:48;8.17;;;3.13;;
6424;SDS011;12193;42.642;23.384;2022-09-16T03:27:24;5.77;;;3.03;;
6424;SDS011;12193;42.642;23.384;2022-09-16T03:30:00;7.17;;;3.20;;
6424;SDS011;12193;42.642;23.384;2022-09-16T03:32:35;6.13;;;2.53;;
6424;SDS011;12193;42.642;23.384;2022-09-16T03:35:10;9.80;;;2.90;;
6424;SDS011;12193;42.642;23.384;2022-09-16T03:37:44;13.43;;;3.30;;
6424;SDS011;12193;42.642;23.384;2022-09-16T03:40:17;5.00;;;2.90;;
6424;SDS011;12193;42.642;23.384;2022-09-16T03:42:48;7.07;;;2.67;;
6424;SDS011;12193;42.642;23.384;2022-09-16T03:45:18;8.03;;;2.60;;
6424;SDS011;12193;42.642;23.384;2022-09-16T03:47:49;10.47;;;3.20;;
6424;SDS011;12193;42.642;23.384;2022-09-16T03:50:20;10.47;;;3.10;;
6424;SDS011;12193;42.642;23.384;2022-09-16T03:52:50;10.60;;;3.17;;
6424;SDS011;12193;42.642;23.384;2022-09-16T03:55:21;11.70;;;3.37;;
6424;SDS011;12193;42.642;23.384;2022-09-16T03:57:52;11.57;;;3.77;;
6424;SDS011;12193;42.642;23.384;2022-09-16T04:00:21;8.00;;;3.40;;
6424;SDS011;12193;42.642;23.384;2022-09-16T04:02:51;10.53;;;2.93;;
6424;SDS011;12193;42.642;23.384;2022-09-16T04:05:20;8.60;;;2.80;;
6424;SDS011;12193;42.642;23.384;2022-09-16T04:07:49;8.37;;;3.10;;
6424;SDS011;12193;42.642;23.384;2022-09-16T04:10:19;11.07;;;3.53;;
6424;SDS011;12193;42.642;23.384;2022-09-16T04:12:55;9.40;;;3.83;;
6424;SDS011;12193;42.642;23.384;2022-09-16T04:15:25;15.33;;;4.53;;
6424;SDS011;12193;42.642;23.384;2022-09-16T04:17:55;14.03;;;4.47;;
6424;SDS011;12193;42.642;23.384;2022-09-16T04:20:24;14.37;;;3.90;;
6424;SDS011;12193;42.642;23.384;2022-09-16T04:22:53;12.80;;;4.17;;
6424;SDS011;12193;42.642;23.384;2022-09-16T04:25:26;17.53;;;4.27;;
6424;SDS011;12193;42.642;23.384;2022-09-16T04:27:55;16.47;;;4.20;;
6424;SDS011;12193;42.642;23.384;2022-09-16T04:30:25;11.00;;;4.23;;
6424;SDS011;12193;42.642;23.384;2022-09-16T04:32:54;10.13;;;3.80;;
6424;SDS011;12193;42.642;23.384;2022-09-16T04:35:24;13.90;;;4.20;;
6424;SDS011;12193;42.642;23.384;2022-09-16T04:37:54;11.70;;;3.67;;
6424;SDS011;12193;42.642;23.384;2022-09-16T04:40:26;10.37;;;3.87;;
6424;SDS011;12193;42.642;23.384;2022-09-16T04:42:55;24.93;;;3.97;;
6424;SDS011;12193;42.642;23.384;2022-09-16T04:45:24;11.67;;;4.00;;
6424;SDS011;12193;42.642;23.384;2022-09-16T04:47:54;13.43;;;3.83;;
6424;SDS011;12193;42.642;23.384;2022-09-16T04:50:24;16.43;;;3.90;;
6424;SDS011;12193;42.642;23.384;2022-09-16T04:52:53;23.13;;;3.93;;
6424;SDS011;12193;42.642;23.384;2022-09-16T04:55:22;9.50;;;3.90;;
6424;SDS011;12193;42.642;23.384;2022-09-16T04:57:55;15.00;;;3.67;;
6424;SDS011;12193;42.642;23.384;2022-09-16T05:00:26;8.83;;;3.47;;
6424;SDS011;12193;42.642;23.384;2022-09-16T05:02:56;8.87;;;3.80;;
6424;SDS011;12193;42.642;23.384;2022-09-16T05:05:26;13.67;;;4.53;;
6424;SDS011;12193;42.642;23.384;2022-09-16T05:07:55;15.93;;;4.63;;
6424;SDS011;12193;42.642;23.384;2022-09-16T05:10:26;12.53;;;3.90;;
6424;SDS011;12193;42.642;23.384;2022-09-16T05:12:56;8.83;;;3.77;;
6424;SDS011;12193;42.642;23.384;2022-09-16T05:15:25;7.30;;;3.67;;
6424;SDS011;12193;42.642;23.384;2022-09-16T05:17:55;15.43;;;4.20;;
6424;SDS011;12193;42.642;23.384;2022-09-16T05:20:24;9.33;;;3.47;;
6424;SDS011;12193;42.642;23.384;2022-09-16T05:22:53;9.47;;;3.87;;
6424;SDS011;12193;42.642;23.384;2022-09-16T05:25:22;12.20;;;4.30;;
6424;SDS011;12193;42.642;23.384;2022-09-16T05:27:54;11.93;;;4.10;;
6424;SDS011;12193;42.642;23.384;2022-09-16T05:30:26;11.03;;;3.97;;
6424;SDS011;12193;42.642;23.384;2022-09-16T05:32:55;14.43;;;4.07;;
6424;SDS011;12193;42.642;23.384;2022-09-16T05:35:24;19.57;;;3.90;;
6424;SDS011;12193;42.642;23.384;2022-09-16T05:37:53;10.80;;;3.97;;
6424;SDS011;12193;42.642;23.384;2022-09-16T05:40:23;10.77;;;3.83;;
6424;SDS011;12193;42.642;23.384;2022-09-16T05:42:55;11.47;;;4.20;;
6424;SDS011;12193;42.642;23.384;2022-09-16T05:45:24;13.57;;;4.00;;
6424;SDS011;12193;42.642;23.384;2022-09-16T05:47:53;16.83;;;3.73;;
6424;SDS011;12193;42.642;23.384;2022-09-16T05:50:22;9.57;;;3.03;;
6424;SDS011;12193;42.642;23.384;2022-09-16T05:52:52;9.37;;;3.37;;
6424;SDS011;12193;42.642;23.384;2022-09-16T05:55:22;11.77;;;3.90;;
6424;SDS011;12193;42.642;23.384;2022-09-16T05:57:51;9.17;;;3.50;;
6424;SDS011;12193;42.642;23.384;2022-09-16T06:00:23;8.60;;;3.43;;
6424;SDS011;12193;42.642;23.384;2022-09-16T06:02:52;16.20;;;4.10;;
6424;SDS011;12193;42.642;23.384;2022-09-16T06:05:21;9.40;;;3.40;;
6424;SDS011;12193;42.642;23.384;2022-09-16T06:07:51;18.00;;;3.57;;
6424;SDS011;12193;42.642;23.384;2022-09-16T06:10:24;15.40;;;3.23;;
6424;SDS011;12193;42.642;23.384;2022-09-16T06:12:53;10.30;;;3.50;;
6424;SDS011;12193;42.642;23.384;2022-09-16T06:15:25;17.97;;;3.90;;
6424;SDS011;12193;42.642;23.384;2022-09-16T06:17:56;18.07;;;3.30;;
6424;SDS011;12193;42.642;23.384;2022-09-16T06:20:25;13.50;;;4.17;;
6424;SDS011;12193;42.642;23.384;2022-09-16T06:22:54;14.63;;;2.77;;
6424;SDS011;12193;42.642;23.384;2022-09-16T06:25:23;10.07;;;3.30;;
6424;SDS011;12193;42.642;23.384;2022-09-16T06:27:53;9.60;;;3.37;;
6424;SDS011;12193;42.642;23.384;2022-09-16T06:30:23;10.33;;;3.43;;
6424;SDS011;12193;42.642;23.384;2022-09-16T06:32:55;14.73;;;4.20;;
6424;SDS011;12193;42.642;23.384;2022-09-16T06:35:24;11.33;;;3.00;;
6424;SDS011;12193;42.642;23.384;2022-09-16T06:37:54;12.73;;;2.90;;
6424;SDS011;12193;42.642;23.384;2022-09-16T06:40:24;8.73;;;3.00;;
6424;SDS011;12193;42.642;23.384;2022-09-16T06:42:53;9.67;;;3.33;;
6424;SDS011;12193;42.642;23.384;2022-09-16T06:45:25;14.63;;;3.30;;
6424;SDS011;12193;42.642;23.384;2022-09-16T06:47:57;11.97;;;3.10;;
6424;SDS011;12193;42.642;23.384;2022-09-16T06:50:27;7.73;;;2.80;;
6424;SDS011;12193;42.642;23.384;2022-09-16T06:52:57;10.40;;;3.63;;
6424;SDS011;12193;42.642;23.384;2022-09-16T06:55:26;9.93;;;3.80;;
6424;SDS011;12193;42.642;23.384;2022-09-16T06:57:56;14.17;;;3.23;;
6424;SDS011;12193;42.642;23.384;2022-09-16T07:00:28;17.20;;;4.17;;
6424;SDS011;12193;42.642;23.384;2022-09-16T07:02:57;11.57;;;3.40;;
6424;SDS011;12193;42.642;23.384;2022-09-16T07:05:29;11.20;;;3.00;;
6424;SDS011;12193;42.642;23.384;2022-09-16T07:07:59;13.63;;;3.20;;
6424;SDS011;12193;42.642;23.384;2022-09-16T07:10:29;14.57;;;3.40;;
6424;SDS011;12193;42.642;23.384;2022-09-16T07:12:58;11.53;;;3.33;;
6424;SDS011;12193;42.642;23.384;2022-09-16T07:15:31;14.13;;;3.20;;
6424;SDS011;12193;42.642;23.384;2022-09-16T07:18:00;12.00;;;3.10;;
6424;SDS011;12193;42.642;23.384;2022-09-16T07:20:30;9.45;;;3.55;;
6424;SDS011;12193;42.642;23.384;2022-09-16T07:22:59;10.57;;;3.00;;
6424;SDS011;12193;42.642;23.384;2022-09-16T07:25:28;9.40;;;3.23;;
6424;SDS011;12193;42.642;23.384;2022-09-16T07:27:58;14.50;;;3.67;;
6424;SDS011;12193;42.642;23.384;2022-09-16T07:30:28;8.95;;;3.70;;
6424;SDS011;12193;42.642;23.384;2022-09-16T07:33:00;12.65;;;3.70;;
6424;SDS011;12193;42.642;23.384;2022-09-16T07:35:30;13.68;;;3.35;;
6424;SDS011;12193;42.642;23.384;2022-09-16T07:37:59;10.77;;;3.30;;
6424;SDS011;12193;42.642;23.384;2022-09-16T07:40:29;7.05;;;2.95;;
6424;SDS011;12193;42.642;23.384;2022-09-16T07:42:58;9.90;;;3.22;;
6424;SDS011;12193;42.642;23.384;2022-09-16T07:45:27;11.30;;;3.33;;
6424;SDS011;12193;42.642;23.384;2022-09-16T07:48:00;11.45;;;3.70;;
6424;SDS011;12193;42.642;23.384;2022-09-16T07:50:29;10.57;;;3.42;;
6424;SDS011;12193;42.642;23.384;2022-09-16T07:52:59;8.40;;;2.88;;
6424;SDS011;12193;42.642;23.384;2022-09-16T07:55:29;12.77;;;3.60;;
6424;SDS011;12193;42.642;23.384;2022-09-16T07:57:58;12.77;;;3.40;;
6424;SDS011;12193;42.642;23.384;2022-09-16T08:00:27;12.32;;;3.20;;
6424;SDS011;12193;42.642;23.384;2022-09-16T08:02:57;13.35;;;3.60;;
6424;SDS011;12193;42.642;23.384;2022-09-16T08:05:29;14.93;;;3.90;;
6424;SDS011;12193;42.642;23.384;2022-09-16T08:07:58;10.45;;;3.20;;
6424;SDS011;12193;42.642;23.384;2022-09-16T08:10:27;8.87;;;3.10;;
6424;SDS011;12193;42.642;23.384;2022-09-16T08:12:56;7.03;;;3.10;;
6424;SDS011;12193;42.642;23.384;2022-09-16T08:15:26;8.77;;;3.30;;
6424;SDS011;12193;42.642;23.384;2022-09-16T08:17:55;15.57;;;3.50;;
6424;SDS011;12193;42.642;23.384;2022-09-16T08:20:27;8.63;;;3.35;;
6424;SDS011;12193;42.642;23.384;2022-09-16T08:22:56;10.75;;;3.42;;
6424;SDS011;12193;42.642;23.384;2022-09-16T08:25:26;12.85;;;3.50;;
6424;SDS011;12193;42.642;23.384;2022-09-16T08:27:56;7.53;;;3.47;;
6424;SDS011;12193;42.642;23.384;2022-09-16T08:30:25;11.85;;;3.38;;
6424;SDS011;12193;42.642;23.384;2022-09-16T08:32:54;8.85;;;3.10;;
6424;SDS011;12193;42.642;23.384;2022-09-16T08:35:27;8.48;;;2.97;;
6424;SDS011;12193;42.642;23.384;2022-09-16T08:37:56;9.50;;;3.55;;
6424;SDS011;12193;42.642;23.384;2022-09-16T08:40:26;6.50;;;3.37;;
6424;SDS011;12193;42.642;23.384;2022-09-16T08:43:00;8.77;;;3.50;;
6424;SDS011;12193;42.642;23.384;2022-09-16T08:45:45;11.07;;;3.47;;
6424;SDS011;12193;42.642;23.384;2022-09-16T08:48:24;11.47;;;3.33;;
6424;SDS011;12193;42.642;23.384;2022-09-16T08:51:03;14.73;;;3.53;;
6424;SDS011;12193;42.642;23.384;2022-09-16T08:53:36;11.30;;;3.27;;
6424;SDS011;12193;42.642;23.384;2022-09-16T08:56:13;10.27;;;3.40;;
6424;SDS011;12193;42.642;23.384;2022-09-16T08:58:46;15.40;;;3.60;;
6424;SDS011;12193;42.642;23.384;2022-09-16T09:01:20;9.83;;;3.17;;
6424;SDS011;12193;42.642;23.384;2022-09-16T09:03:54;7.80;;;3.40;;
6424;SDS011;12193;42.642;23.384;2022-09-16T09:06:35;11.00;;;3.07;;
6424;SDS011;12193;42.642;23.384;2022-09-16T09:09:18;12.77;;;3.63;;
6424;SDS011;12193;42.642;23.384;2022-09-16T09:11:56;8.93;;;3.80;;
6424;SDS011;12193;42.642;23.384;2022-09-16T09:14:33;19.37;;;3.50;;
6424;SDS011;12193;42.642;23.384;2022-09-16T09:17:13;14.17;;;4.00;;
6424;SDS011;12193;42.642;23.384;2022-09-16T09:19:54;13.53;;;3.90;;
6424;SDS011;12193;42.642;23.384;2022-09-16T09:22:42;15.40;;;4.23;;
6424;SDS011;12193;42.642;23.384;2022-09-16T09:25:26;22.07;;;4.90;;
6424;SDS011;12193;42.642;23.384;2022-09-16T09:28:05;14.60;;;4.03;;
6424;SDS011;12193;42.642;23.384;2022-09-16T09:30:49;15.77;;;4.00;;
6424;SDS011;12193;42.642;23.384;2022-09-16T09:33:29;12.77;;;3.80;;
6424;SDS011;12193;42.642;23.384;2022-09-16T09:36:10;13.80;;;3.80;;
6424;SDS011;12193;42.642;23.384;2022-09-16T09:38:56;12.70;;;4.57;;
6424;SDS011;12193;42.642;23.384;2022-09-16T09:41:54;11.53;;;4.60;;
6424;SDS011;12193;42.642;23.384;2022-09-16T09:44:37;21.63;;;4.40;;
6424;SDS011;12193;42.642;23.384;2022-09-16T09:47:14;14.53;;;3.93;;
6424;SDS011;12193;42.642;23.384;2022-09-16T09:49:48;11.40;;;4.30;;
6424;SDS011;12193;42.642;23.384;2022-09-16T09:52:20;17.70;;;4.43;;
6424;SDS011;12193;42.642;23.384;2022-09-16T09:54:58;17.83;;;4.73;;
6424;SDS011;12193;42.642;23.384;2022-09-16T09:57:42;15.30;;;4.87;;
6424;SDS011;12193;42.642;23.384;2022-09-16T10:00:21;14.13;;;4.83;;
6424;SDS011;12193;42.642;23.384;2022-09-16T10:02:50;10.87;;;4.37;;
6424;SDS011;12193;42.642;23.384;2022-09-16T10:05:20;13.70;;;4.80;;
6424;SDS011;12193;42.642;23.384;2022-09-16T10:07:52;17.70;;;4.83;;
6424;SDS011;12193;42.642;23.384;2022-09-16T10:10:26;9.90;;;3.97;;
6424;SDS011;12193;42.642;23.384;2022-09-16T10:13:05;21.93;;;4.90;;
6424;SDS011;12193;42.642;23.384;2022-09-16T10:15:36;16.03;;;4.70;;
6424;SDS011;12193;42.642;23.384;2022-09-16T10:18:08;12.40;;;4.10;;
6424;SDS011;12193;42.642;23.384;2022-09-16T10:20:41;12.80;;;4.63;;
6424;SDS011;12193;42.642;23.384;2022-09-16T10:23:12;20.83;;;5.40;;
6424;SDS011;12193;42.642;23.384;2022-09-16T10:25:45;19.33;;;5.23;;
6424;SDS011;12193;42.642;23.384;2022-09-16T10:28:18;11.43;;;3.93;;
6424;SDS011;12193;42.642;23.384;2022-09-16T10:30:49;13.03;;;4.00;;
6424;SDS011;12193;42.642;23.384;2022-09-16T10:33:22;21.23;;;4.27;;
6424;SDS011;12193;42.642;23.384;2022-09-16T10:35:54;14.80;;;4.43;;
6424;SDS011;12193;42.642;23.384;2022-09-16T10:38:26;10.87;;;4.07;;
6424;SDS011;12193;42.642;23.384;2022-09-16T10:41:06;12.83;;;3.73;;
6424;SDS011;12193;42.642;23.384;2022-09-16T10:43:45;15.30;;;3.37;;
6424;SDS011;12193;42.642;23.384;2022-09-16T10:46:16;13.50;;;3.03;;
6424;SDS011;12193;42.642;23.384;2022-09-16T10:48:47;6.90;;;2.60;;
6424;SDS011;12193;42.642;23.384;2022-09-16T10:51:20;9.70;;;3.10;;
6424;SDS011;12193;42.642;23.384;2022-09-16T10:53:52;6.63;;;2.87;;
6424;SDS011;12193;42.642;23.384;2022-09-16T10:56:26;5.60;;;2.07;;
6424;SDS011;12193;42.642;23.384;2022-09-16T10:59:03;8.87;;;2.30;;
6424;SDS011;12193;42.642;23.384;2022-09-16T11:01:36;5.63;;;2.07;;
6424;SDS011;12193;42.642;23.384;2022-09-16T11:07:21;4.37;;;2.00;;
6424;SDS011;12193;42.642;23.384;2022-09-16T11:10:03;4.87;;;1.60;;
6424;SDS011;12193;42.642;23.384;2022-09-16T11:12:53;5.10;;;1.73;;
6424;SDS011;12193;42.642;23.384;2022-09-16T11:15:40;3.87;;;2.00;;
6424;SDS011;12193;42.642;23.384;2022-09-16T11:18:24;3.80;;;1.60;;
6424;SDS011;12193;42.642;23.384;2022-09-16T11:21:11;4.13;;;1.80;;
6424;SDS011;12193;42.642;23.384;2022-09-16T11:23:57;5.33;;;2.00;;
6424;SDS011;12193;42.642;23.384;2022-09-16T11:26:48;4.07;;;1.60;;
6424;SDS011;12193;42.642;23.384;2022-09-16T11:29:37;2.97;;;1.40;;
6424;SDS011;12193;42.642;23.384;2022-09-16T11:32:13;3.80;;;1.50;;
6424;SDS011;12193;42.642;23.384;2022-09-16T11:34:57;2.17;;;1.10;;
6424;SDS011;12193;42.642;23.384;2022-09-16T11:37:41;3.30;;;1.20;;
6424;SDS011;12193;42.642;23.384;2022-09-16T11:40:21;1.53;;;1.17;;
6424;SDS011;12193;42.642;23.384;2022-09-16T11:43:00;3.27;;;1.23;;
6424;SDS011;12193;42.642;23.384;2022-09-16T11:45:45;3.43;;;1.30;;
6424;SDS011;12193;42.642;23.384;2022-09-16T11:48:26;1.63;;;0.77;;
6424;SDS011;12193;42.642;23.384;2022-09-16T11:51:17;2.03;;;1.00;;
6424;SDS011;12193;42.642;23.384;2022-09-16T11:54:08;1.93;;;1.20;;
6424;SDS011;12193;42.642;23.384;2022-09-16T11:56:46;2.57;;;1.17;;
6424;SDS011;12193;42.642;23.384;2022-09-16T11:59:19;1.87;;;1.10;;
6424;SDS011;12193;42.642;23.384;2022-09-16T12:01:59;7.10;;;2.13;;
6424;SDS011;12193;42.642;23.384;2022-09-16T12:04:33;5.90;;;2.20;;
6424;SDS011;12193;42.642;23.384;2022-09-16T12:07:10;5.63;;;2.00;;
6424;SDS011;12193;42.642;23.384;2022-09-16T12:09:47;6.37;;;2.00;;
6424;SDS011;12193;42.642;23.384;2022-09-16T12:12:24;8.07;;;1.70;;
6424;SDS011;12193;42.642;23.384;2022-09-16T12:15:00;6.00;;;1.50;;
6424;SDS011;12193;42.642;23.384;2022-09-16T12:17:36;6.17;;;1.90;;
6424;SDS011;12193;42.642;23.384;2022-09-16T12:20:12;2.97;;;1.47;;
6424;SDS011;12193;42.642;23.384;2022-09-16T12:22:46;5.17;;;1.80;;
6424;SDS011;12193;42.642;23.384;2022-09-16T12:25:20;2.43;;;1.70;;
6424;SDS011;12193;42.642;23.384;2022-09-16T12:27:56;5.70;;;1.60;;
6424;SDS011;12193;42.642;23.384;2022-09-16T12:30:30;2.23;;;1.53;;
6424;SDS011;12193;42.642;23.384;2022-09-16T12:33:09;4.03;;;2.00;;
6424;SDS011;12193;42.642;23.384;2022-09-16T12:35:43;4.47;;;1.90;;
6424;SDS011;12193;42.642;23.384;2022-09-16T12:38:20;5.77;;;1.90;;
6424;SDS011;12193;42.642;23.384;2022-09-16T12:40:56;6.27;;;2.43;;
6424;SDS011;12193;42.642;23.384;2022-09-16T12:43:43;5.30;;;2.40;;
6424;SDS011;12193;42.642;23.384;2022-09-16T12:46:36;8.23;;;2.73;;
6424;SDS011;12193;42.642;23.384;2022-09-16T12:52:23;8.60;;;2.73;;
6424;SDS011;12193;42.642;23.384;2022-09-16T12:55:24;10.47;;;3.27;;
6424;SDS011;12193;42.642;23.384;2022-09-16T12:58:15;12.47;;;3.63;;
6424;SDS011;12193;42.642;23.384;2022-09-16T13:01:04;7.30;;;3.23;;
6424;SDS011;12193;42.642;23.384;2022-09-16T13:03:45;7.47;;;2.80;;
6424;SDS011;12193;42.642;23.384;2022-09-16T13:06:22;5.00;;;2.77;;
6424;SDS011;12193;42.642;23.384;2022-09-16T13:08:54;8.13;;;3.30;;
6424;SDS011;12193;42.642;23.384;2022-09-16T13:11:26;7.83;;;3.40;;
6424;SDS011;12193;42.642;23.384;2022-09-16T13:13:57;12.70;;;3.40;;
6424;SDS011;12193;42.642;23.384;2022-09-16T13:16:28;5.37;;;2.63;;
6424;SDS011;12193;42.642;23.384;2022-09-16T13:21:57;9.23;;;3.27;;
6424;SDS011;12193;42.642;23.384;2022-09-16T13:24:34;11.23;;;3.83;;
6424;SDS011;12193;42.642;23.384;2022-09-16T13:27:18;6.30;;;3.10;;
6424;SDS011;12193;42.642;23.384;2022-09-16T13:30:04;7.83;;;3.60;;
6424;SDS011;12193;42.642;23.384;2022-09-16T13:32:56;7.80;;;3.40;;
6424;SDS011;12193;42.642;23.384;2022-09-16T13:35:36;6.73;;;3.50;;
6424;SDS011;12193;42.642;23.384;2022-09-16T13:38:19;7.53;;;3.17;;
6424;SDS011;12193;42.642;23.384;2022-09-16T13:40:54;6.53;;;3.17;;
6424;SDS011;12193;42.642;23.384;2022-09-16T13:43:28;7.10;;;3.57;;
6424;SDS011;12193;42.642;23.384;2022-09-16T13:46:04;8.63;;;3.50;;
6424;SDS011;12193;42.642;23.384;2022-09-16T13:48:37;7.10;;;3.70;;
6424;SDS011;12193;42.642;23.384;2022-09-16T13:51:15;8.20;;;3.07;;
6424;SDS011;12193;42.642;23.384;2022-09-16T13:53:53;7.67;;;3.47;;
6424;SDS011;12193;42.642;23.384;2022-09-16T13:56:39;11.93;;;3.67;;
6424;SDS011;12193;42.642;23.384;2022-09-16T13:59:20;10.13;;;3.07;;
6424;SDS011;12193;42.642;23.384;2022-09-16T14:02:03;5.20;;;2.60;;
6424;SDS011;12193;42.642;23.384;2022-09-16T14:04:45;10.33;;;2.90;;
6424;SDS011;12193;42.642;23.384;2022-09-16T14:07:30;8.57;;;2.97;;
6424;SDS011;12193;42.642;23.384;2022-09-16T14:10:12;5.23;;;2.80;;
6424;SDS011;12193;42.642;23.384;2022-09-16T14:12:50;6.43;;;2.57;;
6424;SDS011;12193;42.642;23.384;2022-09-16T14:15:27;5.07;;;2.90;;
6424;SDS011;12193;42.642;23.384;2022-09-16T14:18:02;7.50;;;3.00;;
6424;SDS011;12193;42.642;23.384;2022-09-16T14:20:31;5.10;;;2.67;;
6424;SDS011;12193;42.642;23.384;2022-09-16T14:23:02;7.63;;;3.03;;
6424;SDS011;12193;42.642;23.384;2022-09-16T14:25:35;4.83;;;2.90;;
6424;SDS011;12193;42.642;23.384;2022-09-16T14:28:06;7.10;;;2.60;;
6424;SDS011;12193;42.642;23.384;2022-09-16T14:30:43;4.47;;;2.77;;
6424;SDS011;12193;42.642;23.384;2022-09-16T14:33:13;6.03;;;2.97;;
6424;SDS011;12193;42.642;23.384;2022-09-16T14:35:45;8.00;;;3.10;;
6424;SDS011;12193;42.642;23.384;2022-09-16T14:38:14;6.23;;;2.90;;
6424;SDS011;12193;42.642;23.384;2022-09-16T14:40:49;8.67;;;3.00;;
6424;SDS011;12193;42.642;23.384;2022-09-16T14:43:19;5.73;;;2.73;;
6424;SDS011;12193;42.642;23.384;2022-09-16T14:45:50;13.17;;;3.10;;
6424;SDS011;12193;42.642;23.384;2022-09-16T14:48:28;5.20;;;2.90;;
6424;SDS011;12193;42.642;23.384;2022-09-16T14:51:00;4.67;;;2.70;;
6424;SDS011;12193;42.642;23.384;2022-09-16T14:53:31;6.80;;;3.07;;
6424;SDS011;12193;42.642;23.384;2022-09-16T14:56:04;8.37;;;3.30;;
6424;SDS011;12193;42.642;23.384;2022-09-16T14:58:33;6.17;;;3.53;;
6424;SDS011;12193;42.642;23.384;2022-09-16T15:01:04;6.43;;;2.77;;
6424;SDS011;12193;42.642;23.384;2022-09-16T15:03:39;9.33;;;3.70;;
6424;SDS011;12193;42.642;23.384;2022-09-16T15:06:13;14.43;;;4.50;;
6424;SDS011;12193;42.642;23.384;2022-09-16T15:08:47;6.50;;;3.33;;
6424;SDS011;12193;42.642;23.384;2022-09-16T15:11:24;5.87;;;3.37;;
6424;SDS011;12193;42.642;23.384;2022-09-16T15:13:55;9.07;;;3.63;;
6424;SDS011;12193;42.642;23.384;2022-09-16T15:16:25;8.37;;;3.50;;
6424;SDS011;12193;42.642;23.384;2022-09-16T15:18:56;8.43;;;3.47;;
6424;SDS011;12193;42.642;23.384;2022-09-16T15:21:31;8.17;;;4.00;;
6424;SDS011;12193;42.642;23.384;2022-09-16T15:24:03;7.73;;;3.00;;
6424;SDS011;12193;42.642;23.384;2022-09-16T15:26:45;8.97;;;3.10;;
6424;SDS011;12193;42.642;23.384;2022-09-16T15:29:25;6.60;;;3.30;;
6424;SDS011;12193;42.642;23.384;2022-09-16T15:32:13;7.37;;;3.30;;
6424;SDS011;12193;42.642;23.384;2022-09-16T15:34:45;4.20;;;2.93;;
6424;SDS011;12193;42.642;23.384;2022-09-16T15:37:28;6.37;;;2.70;;
6424;SDS011;12193;42.642;23.384;2022-09-16T15:40:09;6.73;;;3.43;;
6424;SDS011;12193;42.642;23.384;2022-09-16T15:43:00;5.63;;;2.77;;
6424;SDS011;12193;42.642;23.384;2022-09-16T15:45:31;6.87;;;2.90;;
6424;SDS011;12193;42.642;23.384;2022-09-16T15:48:03;9.30;;;3.60;;
6424;SDS011;12193;42.642;23.384;2022-09-16T15:50:39;4.97;;;2.60;;
6424;SDS011;12193;42.642;23.384;2022-09-16T15:53:11;5.50;;;2.60;;
6424;SDS011;12193;42.642;23.384;2022-09-16T15:55:50;9.33;;;2.97;;
6424;SDS011;12193;42.642;23.384;2022-09-16T15:58:32;7.77;;;3.37;;
6424;SDS011;12193;42.642;23.384;2022-09-16T16:01:07;4.67;;;2.63;;
6424;SDS011;12193;42.642;23.384;2022-09-16T16:03:48;7.53;;;3.27;;
6424;SDS011;12193;42.642;23.384;2022-09-16T16:06:38;4.80;;;3.13;;
6424;SDS011;12193;42.642;23.384;2022-09-16T16:12:08;9.60;;;3.97;;
6424;SDS011;12193;42.642;23.384;2022-09-16T16:14:46;11.10;;;3.87;;
6424;SDS011;12193;42.642;23.384;2022-09-16T16:17:16;6.60;;;3.77;;
6424;SDS011;12193;42.642;23.384;2022-09-16T16:19:48;6.60;;;3.90;;
6424;SDS011;12193;42.642;23.384;2022-09-16T16:22:21;6.97;;;3.47;;
6424;SDS011;12193;42.642;23.384;2022-09-16T16:24:50;8.17;;;3.93;;
6424;SDS011;12193;42.642;23.384;2022-09-16T16:27:19;7.37;;;3.50;;
6424;SDS011;12193;42.642;23.384;2022-09-16T16:29:51;8.63;;;3.33;;
6424;SDS011;12193;42.642;23.384;2022-09-16T16:32:20;6.10;;;3.10;;
6424;SDS011;12193;42.642;23.384;2022-09-16T16:34:50;7.73;;;2.90;;
6424;SDS011;12193;42.642;23.384;2022-09-16T16:37:23;5.07;;;2.90;;
6424;SDS011;12193;42.642;23.384;2022-09-16T16:39:53;6.37;;;2.70;;
6424;SDS011;12193;42.642;23.384;2022-09-16T16:42:22;10.17;;;3.23;;
6424;SDS011;12193;42.642;23.384;2022-09-16T16:44:56;5.83;;;2.83;;
6424;SDS011;12193;42.642;23.384;2022-09-16T16:47:25;8.90;;;3.70;;
6424;SDS011;12193;42.642;23.384;2022-09-16T16:49:54;7.93;;;3.17;;
6424;SDS011;12193;42.642;23.384;2022-09-16T16:52:25;9.33;;;2.93;;
6424;SDS011;12193;42.642;23.384;2022-09-16T16:54:54;5.87;;;3.47;;
6424;SDS011;12193;42.642;23.384;2022-09-16T16:57:24;9.13;;;3.70;;
6424;SDS011;12193;42.642;23.384;2022-09-16T16:59:56;6.37;;;3.23;;
6424;SDS011;12193;42.642;23.384;2022-09-16T17:02:25;8.87;;;3.43;;
6424;SDS011;12193;42.642;23.384;2022-09-16T17:04:54;5.80;;;2.67;;
6424;SDS011;12193;42.642;23.384;2022-09-16T17:07:24;5.13;;;2.90;;
6424;SDS011;12193;42.642;23.384;2022-09-16T17:09:54;6.20;;;2.80;;
6424;SDS011;12193;42.642;23.384;2022-09-16T17:12:24;8.27;;;3.33;;
6424;SDS011;12193;42.642;23.384;2022-09-16T17:14:57;6.83;;;3.20;;
6424;SDS011;12193;42.642;23.384;2022-09-16T17:17:26;8.63;;;3.23;;
6424;SDS011;12193;42.642;23.384;2022-09-16T17:19:55;7.93;;;3.00;;
6424;SDS011;12193;42.642;23.384;2022-09-16T17:22:24;8.20;;;3.07;;
6424;SDS011;12193;42.642;23.384;2022-09-16T17:24:54;6.07;;;3.03;;
6424;SDS011;12193;42.642;23.384;2022-09-16T17:27:23;6.23;;;3.17;;
6424;SDS011;12193;42.642;23.384;2022-09-16T17:29:52;6.47;;;2.73;;
6424;SDS011;12193;42.642;23.384;2022-09-16T17:32:24;9.87;;;3.37;;
6424;SDS011;12193;42.642;23.384;2022-09-16T17:34:53;6.07;;;3.20;;
6424;SDS011;12193;42.642;23.384;2022-09-16T17:37:23;4.03;;;2.30;;
6424;SDS011;12193;42.642;23.384;2022-09-16T17:39:52;9.40;;;3.10;;
6424;SDS011;12193;42.642;23.384;2022-09-16T17:42:21;5.70;;;2.70;;
6424;SDS011;12193;42.642;23.384;2022-09-16T17:44:50;6.10;;;2.70;;
6424;SDS011;12193;42.642;23.384;2022-09-16T17:47:20;7.80;;;2.80;;
6424;SDS011;12193;42.642;23.384;2022-09-16T17:49:51;7.87;;;2.77;;
6424;SDS011;12193;42.642;23.384;2022-09-16T17:52:24;6.00;;;2.70;;
6424;SDS011;12193;42.642;23.384;2022-09-16T17:54:53;7.00;;;2.70;;
6424;SDS011;12193;42.642;23.384;2022-09-16T17:57:22;8.03;;;2.80;;
6424;SDS011;12193;42.642;23.384;2022-09-16T17:59:52;9.30;;;3.30;;
6424;SDS011;12193;42.642;23.384;2022-09-16T18:02:22;6.03;;;2.60;;
6424;SDS011;12193;42.642;23.384;2022-09-16T18:04:53;4.30;;;2.43;;
6424;SDS011;12193;42.642;23.384;2022-09-16T18:07:23;6.00;;;2.40;;
6424;SDS011;12193;42.642;23.384;2022-09-16T18:09:52;5.33;;;2.87;;
6424;SDS011;12193;42.642;23.384;2022-09-16T18:12:21;8.60;;;3.10;;
6424;SDS011;12193;42.642;23.384;2022-09-16T18:14:50;6.63;;;2.83;;
6424;SDS011;12193;42.642;23.384;2022-09-16T18:17:19;6.00;;;2.80;;
6424;SDS011;12193;42.642;23.384;2022-09-16T18:19:49;6.77;;;2.60;;
6424;SDS011;12193;42.642;23.384;2022-09-16T18:22:21;5.23;;;3.17;;
6424;SDS011;12193;42.642;23.384;2022-09-16T18:24:50;6.93;;;2.87;;
6424;SDS011;12193;42.642;23.384;2022-09-16T18:27:20;6.53;;;2.87;;
6424;SDS011;12193;42.642;23.384;2022-09-16T18:29:49;4.93;;;2.70;;
6424;SDS011;12193;42.642;23.384;2022-09-16T18:32:19;9.60;;;3.17;;
6424;SDS011;12193;42.642;23.384;2022-09-16T18:34:48;7.53;;;3.17;;
6424;SDS011;12193;42.642;23.384;2022-09-16T18:37:17;11.87;;;3.80;;